sensor_id;sensor_type;location;lat;lon;timestamp;temperature;humidity
3954;DHT22;1991;48.682;9.030;2022-07-03T00:01:23;18.30;98.70
3954;DHT22;1991;48.682;9.030;2022-07-03T00:03:48;18.30;98.90
3954;DHT22;1991;48.682;9.030;2022-07-03T00:06:14;18.20;99.10
3954;DHT22;1991;48.682;9.030;2022-07-03T00:08:40;18.10;99.00
3954;DHT22;1991;48.682;9.030;2022-07-03T00:11:06;18.10;98.90
3954;DHT22;1991;48.682;9.030;2022-07-03T00:13:32;18.10;99.60
3954;DHT22;1991;48.682;9.030;2022-07-03T00:15:57;18.10;99.90
3954;DHT22;1991;48.682;9.030;2022-07-03T00:18:23;18.00;99.90
3954;DHT22;1991;48.682;9.030;2022-07-03T00:21:00;18.00;99.90
3954;DHT22;1991;48.682;9.030;2022-07-03T00:23:29;17.90;99.90
3954;DHT22;1991;48.682;9.030;2022-07-03T00:25:55;17.90;99.90
3954;DHT22;1991;48.682;9.030;2022-07-03T00:28:24;17.90;99.90
3954;DHT22;1991;48.682;9.030;2022-07-03T00:30:51;17.90;99.90
3954;DHT22;1991;48.682;9.030;2022-07-03T00:33:18;17.80;99.90
3954;DHT22;1991;48.682;9.030;2022-07-03T00:35:44;17.80;99.90
3954;DHT22;1991;48.682;9.030;2022-07-03T00:38:12;17.80;99.90
3954;DHT22;1991;48.682;9.030;2022-07-03T00:40:38;17.70;99.90
3954;DHT22;1991;48.682;9.030;2022-07-03T00:43:04;17.70;99.90
3954;DHT22;1991;48.682;9.030;2022-07-03T00:45:34;17.70;99.90
3954;DHT22;1991;48.682;9.030;2022-07-03T00:47:59;17.70;99.90
3954;DHT22;1991;48.682;9.030;2022-07-03T00:50:29;17.60;99.90
3954;DHT22;1991;48.682;9.030;2022-07-03T00:52:58;17.60;99.90
3954;DHT22;1991;48.682;9.030;2022-07-03T00:55:26;17.60;99.90
3954;DHT22;1991;48.682;9.030;2022-07-03T00:57:55;17.60;99.90
3954;DHT22;1991;48.682;9.030;2022-07-03T01:00:22;17.60;99.90
3954;DHT22;1991;48.682;9.030;2022-07-03T01:02:56;17.50;99.90
3954;DHT22;1991;48.682;9.030;2022-07-03T01:27:07;17.30;99.90
3954;DHT22;1991;48.682;9.030;2022-07-03T01:30:24;17.20;99.90
3954;DHT22;1991;48.682;9.030;2022-07-03T01:32:28;17.20;99.90
3954;DHT22;1991;48.682;9.030;2022-07-03T01:34:57;17.20;99.90
3954;DHT22;1991;48.682;9.030;2022-07-03T01:37:27;17.20;99.90
3954;DHT22;1991;48.682;9.030;2022-07-03T01:39:57;17.10;99.90
3954;DHT22;1991;48.682;9.030;2022-07-03T01:42:24;17.10;99.90
3954;DHT22;1991;48.682;9.030;2022-07-03T01:44:52;17.10;99.90
3954;DHT22;1991;48.682;9.030;2022-07-03T01:47:19;17.00;99.90
3954;DHT22;1991;48.682;9.030;2022-07-03T01:49:47;17.00;99.90
3954;DHT22;1991;48.682;9.030;2022-07-03T01:52:15;17.00;99.90
3954;DHT22;1991;48.682;9.030;2022-07-03T01:54:42;17.00;99.90
3954;DHT22;1991;48.682;9.030;2022-07-03T01:57:10;17.00;99.90
3954;DHT22;1991;48.682;9.030;2022-07-03T01:59:35;16.90;99.90
3954;DHT22;1991;48.682;9.030;2022-07-03T02:04:47;17.00;99.90
3954;DHT22;1991;48.682;9.030;2022-07-03T02:07:21;17.00;99.90
3954;DHT22;1991;48.682;9.030;2022-07-03T02:10:06;16.90;99.90
3954;DHT22;1991;48.682;9.030;2022-07-03T02:12:52;16.90;99.90
3954;DHT22;1991;48.682;9.030;2022-07-03T02:15:33;16.90;99.90
3954;DHT22;1991;48.682;9.030;2022-07-03T02:18:14;17.00;99.90
3954;DHT22;1991;48.682;9.030;2022-07-03T02:20:54;16.90;99.90
3954;DHT22;1991;48.682;9.030;2022-07-03T02:23:23;16.80;99.90
3954;DHT22;1991;48.682;9.030;2022-07-03T02:25:51;16.80;99.90
3954;DHT22;1991;48.682;9.030;2022-07-03T02:28:58;16.80;99.90
3954;DHT22;1991;48.682;9.030;2022-07-03T02:31:27;16.80;99.90
3954;DHT22;1991;48.682;9.030;2022-07-03T02:33:57;16.80;99.90
3954;DHT22;1991;48.682;9.030;2022-07-03T02:36:28;16.70;99.90
3954;DHT22;1991;48.682;9.030;2022-07-03T02:38:56;16.70;99.90
3954;DHT22;1991;48.682;9.030;2022-07-03T02:41:28;16.70;99.90
3954;DHT22;1991;48.682;9.030;2022-07-03T02:43:59;16.70;99.90
3954;DHT22;1991;48.682;9.030;2022-07-03T02:54:45;16.60;99.90
3954;DHT22;1991;48.682;9.030;2022-07-03T02:57:19;16.50;99.90
3954;DHT22;1991;48.682;9.030;2022-07-03T03:00:00;16.50;99.90
3954;DHT22;1991;48.682;9.030;2022-07-03T03:05:02;16.50;99.90
3954;DHT22;1991;48.682;9.030;2022-07-03T03:07:34;16.50;99.90
3954;DHT22;1991;48.682;9.030;2022-07-03T03:10:00;16.40;99.90
3954;DHT22;1991;48.682;9.030;2022-07-03T03:12:31;16.40;99.90
3954;DHT22;1991;48.682;9.030;2022-07-03T03:15:02;16.40;99.90
3954;DHT22;1991;48.682;9.030;2022-07-03T03:17:36;16.40;99.90
3954;DHT22;1991;48.682;9.030;2022-07-03T03:20:02;16.40;99.90
3954;DHT22;1991;48.682;9.030;2022-07-03T03:25:10;16.30;99.90
3954;DHT22;1991;48.682;9.030;2022-07-03T03:27:35;16.30;99.90
3954;DHT22;1991;48.682;9.030;2022-07-03T03:30:01;16.30;99.90
3954;DHT22;1991;48.682;9.030;2022-07-03T03:32:28;16.30;99.90
3954;DHT22;1991;48.682;9.030;2022-07-03T03:34:54;16.30;99.90
3954;DHT22;1991;48.682;9.030;2022-07-03T03:37:20;16.30;99.90
3954;DHT22;1991;48.682;9.030;2022-07-03T03:39:46;16.30;99.90
3954;DHT22;1991;48.682;9.030;2022-07-03T03:42:11;16.20;99.90
3954;DHT22;1991;48.682;9.030;2022-07-03T03:44:38;16.20;99.90
3954;DHT22;1991;48.682;9.030;2022-07-03T03:47:04;16.20;99.90
3954;DHT22;1991;48.682;9.030;2022-07-03T03:49:29;16.20;99.90
3954;DHT22;1991;48.682;9.030;2022-07-03T03:51:56;16.20;99.90
3954;DHT22;1991;48.682;9.030;2022-07-03T03:54:22;16.20;99.90
3954;DHT22;1991;48.682;9.030;2022-07-03T03:56:47;16.20;99.90
3954;DHT22;1991;48.682;9.030;2022-07-03T03:59:13;16.20;99.90
3954;DHT22;1991;48.682;9.030;2022-07-03T04:01:38;16.20;99.90
3954;DHT22;1991;48.682;9.030;2022-07-03T04:04:04;16.20;99.90
3954;DHT22;1991;48.682;9.030;2022-07-03T04:06:30;16.20;99.90
3954;DHT22;1991;48.682;9.030;2022-07-03T04:08:55;16.20;99.90
3954;DHT22;1991;48.682;9.030;2022-07-03T04:11:21;16.20;99.90
3954;DHT22;1991;48.682;9.030;2022-07-03T04:13:46;16.20;99.90
3954;DHT22;1991;48.682;9.030;2022-07-03T04:16:12;16.20;99.90
3954;DHT22;1991;48.682;9.030;2022-07-03T04:18:38;16.20;99.90
3954;DHT22;1991;48.682;9.030;2022-07-03T04:21:04;16.20;99.90
3954;DHT22;1991;48.682;9.030;2022-07-03T04:23:30;16.30;99.90
3954;DHT22;1991;48.682;9.030;2022-07-03T04:26:02;16.30;99.90
3954;DHT22;1991;48.682;9.030;2022-07-03T04:28:27;16.30;99.90
3954;DHT22;1991;48.682;9.030;2022-07-03T04:30:53;16.40;99.90
3954;DHT22;1991;48.682;9.030;2022-07-03T04:33:18;16.40;99.90
3954;DHT22;1991;48.682;9.030;2022-07-03T04:35:44;16.50;99.90
3954;DHT22;1991;48.682;9.030;2022-07-03T04:38:10;16.50;99.90
3954;DHT22;1991;48.682;9.030;2022-07-03T04:40:36;16.60;99.90
3954;DHT22;1991;48.682;9.030;2022-07-03T04:43:01;16.70;99.90
3954;DHT22;1991;48.682;9.030;2022-07-03T04:45:27;16.70;99.90
3954;DHT22;1991;48.682;9.030;2022-07-03T04:47:52;16.80;99.90
3954;DHT22;1991;48.682;9.030;2022-07-03T04:50:18;16.80;99.90
3954;DHT22;1991;48.682;9.030;2022-07-03T04:52:43;16.90;99.90
3954;DHT22;1991;48.682;9.030;2022-07-03T04:55:09;17.00;99.90
3954;DHT22;1991;48.682;9.030;2022-07-03T04:57:35;17.10;99.90
3954;DHT22;1991;48.682;9.030;2022-07-03T05:00:02;17.10;99.90
3954;DHT22;1991;48.682;9.030;2022-07-03T05:02:27;17.20;99.90
3954;DHT22;1991;48.682;9.030;2022-07-03T05:04:53;17.30;99.90
3954;DHT22;1991;48.682;9.030;2022-07-03T05:07:19;17.30;99.90
3954;DHT22;1991;48.682;9.030;2022-07-03T05:09:44;17.40;99.90
3954;DHT22;1991;48.682;9.030;2022-07-03T05:12:10;17.50;99.90
3954;DHT22;1991;48.682;9.030;2022-07-03T05:14:35;17.60;99.90
3954;DHT22;1991;48.682;9.030;2022-07-03T05:17:01;17.60;99.90
3954;DHT22;1991;48.682;9.030;2022-07-03T05:19:26;17.70;99.90
3954;DHT22;1991;48.682;9.030;2022-07-03T05:21:52;17.80;99.90
3954;DHT22;1991;48.682;9.030;2022-07-03T05:24:17;17.80;99.90
3954;DHT22;1991;48.682;9.030;2022-07-03T05:26:43;17.90;99.90
3954;DHT22;1991;48.682;9.030;2022-07-03T05:29:08;18.00;99.90
3954;DHT22;1991;48.682;9.030;2022-07-03T05:31:34;18.20;99.90
3954;DHT22;1991;48.682;9.030;2022-07-03T05:34:00;18.20;99.90
3954;DHT22;1991;48.682;9.030;2022-07-03T05:36:25;18.30;99.90
3954;DHT22;1991;48.682;9.030;2022-07-03T05:38:51;18.40;99.90
3954;DHT22;1991;48.682;9.030;2022-07-03T05:41:35;18.50;99.90
3954;DHT22;1991;48.682;9.030;2022-07-03T05:44:00;18.60;99.90
3954;DHT22;1991;48.682;9.030;2022-07-03T05:46:26;18.70;99.90
3954;DHT22;1991;48.682;9.030;2022-07-03T05:48:51;18.80;99.90
3954;DHT22;1991;48.682;9.030;2022-07-03T05:51:17;19.00;99.90
3954;DHT22;1991;48.682;9.030;2022-07-03T05:53:43;19.10;99.90
3954;DHT22;1991;48.682;9.030;2022-07-03T05:56:08;19.20;99.90
3954;DHT22;1991;48.682;9.030;2022-07-03T05:58:34;19.40;99.90
3954;DHT22;1991;48.682;9.030;2022-07-03T06:00:59;19.50;99.90
3954;DHT22;1991;48.682;9.030;2022-07-03T06:03:25;19.60;99.90
3954;DHT22;1991;48.682;9.030;2022-07-03T06:05:50;19.80;99.90
3954;DHT22;1991;48.682;9.030;2022-07-03T06:08:16;19.90;99.90
3954;DHT22;1991;48.682;9.030;2022-07-03T06:10:42;20.10;99.90
3954;DHT22;1991;48.682;9.030;2022-07-03T06:13:07;20.20;99.90
3954;DHT22;1991;48.682;9.030;2022-07-03T06:15:33;20.40;99.90
3954;DHT22;1991;48.682;9.030;2022-07-03T06:17:59;20.50;99.90
3954;DHT22;1991;48.682;9.030;2022-07-03T06:20:24;20.70;99.90
3954;DHT22;1991;48.682;9.030;2022-07-03T06:22:50;20.80;99.80
3954;DHT22;1991;48.682;9.030;2022-07-03T06:25:16;21.00;98.90
3954;DHT22;1991;48.682;9.030;2022-07-03T06:27:41;21.10;98.80
3954;DHT22;1991;48.682;9.030;2022-07-03T06:30:08;21.20;98.20
3954;DHT22;1991;48.682;9.030;2022-07-03T06:32:34;21.30;97.90
3954;DHT22;1991;48.682;9.030;2022-07-03T06:34:59;21.40;97.00
3954;DHT22;1991;48.682;9.030;2022-07-03T06:37:25;21.60;97.50
3954;DHT22;1991;48.682;9.030;2022-07-03T06:39:51;21.70;96.00
3954;DHT22;1991;48.682;9.030;2022-07-03T06:42:16;21.80;95.40
3954;DHT22;1991;48.682;9.030;2022-07-03T06:44:43;21.90;95.50
3954;DHT22;1991;48.682;9.030;2022-07-03T06:47:10;22.10;95.40
3954;DHT22;1991;48.682;9.030;2022-07-03T06:49:35;22.30;94.00
3954;DHT22;1991;48.682;9.030;2022-07-03T06:52:01;22.50;93.90
3954;DHT22;1991;48.682;9.030;2022-07-03T06:54:27;22.70;93.60
3954;DHT22;1991;48.682;9.030;2022-07-03T06:56:52;22.90;92.60
3954;DHT22;1991;48.682;9.030;2022-07-03T06:59:18;23.20;91.80
3954;DHT22;1991;48.682;9.030;2022-07-03T07:01:44;23.30;91.30
3954;DHT22;1991;48.682;9.030;2022-07-03T07:04:09;23.30;90.30
3954;DHT22;1991;48.682;9.030;2022-07-03T07:06:35;23.50;90.90
3954;DHT22;1991;48.682;9.030;2022-07-03T07:09:01;23.60;90.50
3954;DHT22;1991;48.682;9.030;2022-07-03T07:11:27;23.60;90.10
3954;DHT22;1991;48.682;9.030;2022-07-03T07:13:53;23.80;90.40
3954;DHT22;1991;48.682;9.030;2022-07-03T07:16:19;24.00;85.20
3954;DHT22;1991;48.682;9.030;2022-07-03T07:18:44;24.20;82.40
3954;DHT22;1991;48.682;9.030;2022-07-03T07:21:10;24.60;83.10
3954;DHT22;1991;48.682;9.030;2022-07-03T07:23:36;24.90;79.40
3954;DHT22;1991;48.682;9.030;2022-07-03T07:26:03;24.90;76.80
3954;DHT22;1991;48.682;9.030;2022-07-03T07:28:29;24.80;77.70
3954;DHT22;1991;48.682;9.030;2022-07-03T07:30:56;24.80;79.80
3954;DHT22;1991;48.682;9.030;2022-07-03T07:33:23;24.70;79.10
3954;DHT22;1991;48.682;9.030;2022-07-03T07:35:49;24.90;79.30
3954;DHT22;1991;48.682;9.030;2022-07-03T07:38:15;25.10;75.00
3954;DHT22;1991;48.682;9.030;2022-07-03T07:40:40;25.30;73.80
3954;DHT22;1991;48.682;9.030;2022-07-03T07:43:06;25.50;74.40
3954;DHT22;1991;48.682;9.030;2022-07-03T07:45:32;25.70;73.00
3954;DHT22;1991;48.682;9.030;2022-07-03T07:47:58;25.80;71.00
3954;DHT22;1991;48.682;9.030;2022-07-03T07:50:24;25.80;70.50
3954;DHT22;1991;48.682;9.030;2022-07-03T07:52:49;25.70;70.30
3954;DHT22;1991;48.682;9.030;2022-07-03T07:55:15;25.80;67.30
3954;DHT22;1991;48.682;9.030;2022-07-03T07:57:41;25.80;65.80
3954;DHT22;1991;48.682;9.030;2022-07-03T08:00:13;25.80;68.90
3954;DHT22;1991;48.682;9.030;2022-07-03T08:02:40;25.90;65.80
3954;DHT22;1991;48.682;9.030;2022-07-03T08:05:24;25.80;66.60
3954;DHT22;1991;48.682;9.030;2022-07-03T08:08:07;25.90;66.20
3954;DHT22;1991;48.682;9.030;2022-07-03T08:10:35;26.20;66.10
3954;DHT22;1991;48.682;9.030;2022-07-03T08:13:00;26.30;63.60
3954;DHT22;1991;48.682;9.030;2022-07-03T08:15:26;26.50;63.60
3954;DHT22;1991;48.682;9.030;2022-07-03T08:17:52;26.80;64.70
3954;DHT22;1991;48.682;9.030;2022-07-03T08:20:17;26.90;63.10
3954;DHT22;1991;48.682;9.030;2022-07-03T08:22:43;27.10;63.40
3954;DHT22;1991;48.682;9.030;2022-07-03T08:25:08;27.40;63.80
3954;DHT22;1991;48.682;9.030;2022-07-03T08:27:34;27.50;64.60
3954;DHT22;1991;48.682;9.030;2022-07-03T08:29:59;27.30;62.80
3954;DHT22;1991;48.682;9.030;2022-07-03T08:32:25;27.40;64.20
3954;DHT22;1991;48.682;9.030;2022-07-03T08:34:51;27.60;62.50
3954;DHT22;1991;48.682;9.030;2022-07-03T08:37:16;27.50;60.00
3954;DHT22;1991;48.682;9.030;2022-07-03T08:39:42;27.90;60.30
3954;DHT22;1991;48.682;9.030;2022-07-03T08:42:11;28.10;55.30
3954;DHT22;1991;48.682;9.030;2022-07-03T08:44:38;28.20;55.90
3954;DHT22;1991;48.682;9.030;2022-07-03T08:47:07;28.40;55.30
3954;DHT22;1991;48.682;9.030;2022-07-03T08:49:34;28.40;56.80
3954;DHT22;1991;48.682;9.030;2022-07-03T08:52:00;28.50;56.70
3954;DHT22;1991;48.682;9.030;2022-07-03T08:54:26;28.60;55.40
3954;DHT22;1991;48.682;9.030;2022-07-03T08:56:52;28.20;55.90
3954;DHT22;1991;48.682;9.030;2022-07-03T08:59:18;28.20;55.40
3954;DHT22;1991;48.682;9.030;2022-07-03T09:01:46;28.30;56.30
3954;DHT22;1991;48.682;9.030;2022-07-03T09:04:13;28.20;56.10
3954;DHT22;1991;48.682;9.030;2022-07-03T09:06:40;28.20;55.20
3954;DHT22;1991;48.682;9.030;2022-07-03T09:09:06;28.10;55.40
3954;DHT22;1991;48.682;9.030;2022-07-03T09:11:32;28.60;55.40
3954;DHT22;1991;48.682;9.030;2022-07-03T09:13:58;28.80;51.80
3954;DHT22;1991;48.682;9.030;2022-07-03T09:16:24;29.20;50.90
3954;DHT22;1991;48.682;9.030;2022-07-03T09:18:50;29.10;48.90
3954;DHT22;1991;48.682;9.030;2022-07-03T09:21:16;28.90;48.80
3954;DHT22;1991;48.682;9.030;2022-07-03T09:23:44;28.90;48.80
3954;DHT22;1991;48.682;9.030;2022-07-03T09:26:17;29.10;49.50
3954;DHT22;1991;48.682;9.030;2022-07-03T09:28:52;29.50;50.10
3954;DHT22;1991;48.682;9.030;2022-07-03T09:31:23;29.90;49.30
3954;DHT22;1991;48.682;9.030;2022-07-03T09:34:00;29.70;49.00
3954;DHT22;1991;48.682;9.030;2022-07-03T09:36:46;29.30;48.70
3954;DHT22;1991;48.682;9.030;2022-07-03T09:39:29;29.60;47.80
3954;DHT22;1991;48.682;9.030;2022-07-03T09:42:02;29.90;47.50
3954;DHT22;1991;48.682;9.030;2022-07-03T09:52:29;28.80;50.80
3954;DHT22;1991;48.682;9.030;2022-07-03T09:54:59;29.10;50.30
3954;DHT22;1991;48.682;9.030;2022-07-03T09:57:27;29.20;49.60
3954;DHT22;1991;48.682;9.030;2022-07-03T10:00:15;29.40;50.10
3954;DHT22;1991;48.682;9.030;2022-07-03T10:05:30;29.50;49.60
3954;DHT22;1991;48.682;9.030;2022-07-03T10:08:00;29.80;48.80
3954;DHT22;1991;48.682;9.030;2022-07-03T10:10:28;30.10;47.00
3954;DHT22;1991;48.682;9.030;2022-07-03T10:12:55;30.60;46.90
3954;DHT22;1991;48.682;9.030;2022-07-03T10:15:22;30.70;45.10
3954;DHT22;1991;48.682;9.030;2022-07-03T10:17:50;30.60;45.60
3954;DHT22;1991;48.682;9.030;2022-07-03T10:22:48;31.50;49.10
3954;DHT22;1991;48.682;9.030;2022-07-03T10:25:17;31.80;44.40
3954;DHT22;1991;48.682;9.030;2022-07-03T10:27:44;31.60;44.20
3954;DHT22;1991;48.682;9.030;2022-07-03T10:30:12;31.20;45.40
3954;DHT22;1991;48.682;9.030;2022-07-03T10:32:38;30.90;45.60
3954;DHT22;1991;48.682;9.030;2022-07-03T10:35:05;30.50;45.60
3954;DHT22;1991;48.682;9.030;2022-07-03T10:37:41;30.20;46.70
3954;DHT22;1991;48.682;9.030;2022-07-03T10:40:23;30.00;47.10
3954;DHT22;1991;48.682;9.030;2022-07-03T10:43:14;30.10;45.00
3954;DHT22;1991;48.682;9.030;2022-07-03T10:46:16;30.20;44.70
3954;DHT22;1991;48.682;9.030;2022-07-03T10:49:15;30.70;44.50
3954;DHT22;1991;48.682;9.030;2022-07-03T10:51:59;30.90;43.40
3954;DHT22;1991;48.682;9.030;2022-07-03T10:54:33;31.00;44.50
3954;DHT22;1991;48.682;9.030;2022-07-03T11:05:05;31.50;44.30
3954;DHT22;1991;48.682;9.030;2022-07-03T11:15:39;31.90;42.80
3954;DHT22;1991;48.682;9.030;2022-07-03T11:20:55;32.20;41.50
3954;DHT22;1991;48.682;9.030;2022-07-03T11:23:37;32.20;40.90
3954;DHT22;1991;48.682;9.030;2022-07-03T11:38:47;31.80;43.10
3954;DHT22;1991;48.682;9.030;2022-07-03T11:41:14;31.90;41.00
3954;DHT22;1991;48.682;9.030;2022-07-03T11:43:48;32.00;41.30
3954;DHT22;1991;48.682;9.030;2022-07-03T11:46:18;31.90;42.00
3954;DHT22;1991;48.682;9.030;2022-07-03T11:48:44;31.70;42.20
3954;DHT22;1991;48.682;9.030;2022-07-03T11:51:10;31.70;44.40
3954;DHT22;1991;48.682;9.030;2022-07-03T11:53:37;31.50;42.50
3954;DHT22;1991;48.682;9.030;2022-07-03T11:58:46;31.00;41.20
3954;DHT22;1991;48.682;9.030;2022-07-03T12:04:14;30.90;41.70
3954;DHT22;1991;48.682;9.030;2022-07-03T12:09:16;31.10;40.60
3954;DHT22;1991;48.682;9.030;2022-07-03T12:11:42;31.20;42.70
3954;DHT22;1991;48.682;9.030;2022-07-03T12:14:16;31.60;42.40
3954;DHT22;1991;48.682;9.030;2022-07-03T12:16:42;31.70;41.50
3954;DHT22;1991;48.682;9.030;2022-07-03T12:19:07;31.90;41.30
3954;DHT22;1991;48.682;9.030;2022-07-03T12:21:38;32.10;40.40
3954;DHT22;1991;48.682;9.030;2022-07-03T12:24:13;32.00;41.20
3954;DHT22;1991;48.682;9.030;2022-07-03T12:26:40;31.80;40.40
3954;DHT22;1991;48.682;9.030;2022-07-03T12:29:10;31.80;39.60
3954;DHT22;1991;48.682;9.030;2022-07-03T12:31:44;32.00;40.60
3954;DHT22;1991;48.682;9.030;2022-07-03T12:34:11;32.00;40.20
3954;DHT22;1991;48.682;9.030;2022-07-03T12:36:37;31.90;40.00
3954;DHT22;1991;48.682;9.030;2022-07-03T12:39:03;32.10;40.00
3954;DHT22;1991;48.682;9.030;2022-07-03T12:41:29;32.20;39.20
3954;DHT22;1991;48.682;9.030;2022-07-03T12:43:58;32.70;39.50
3954;DHT22;1991;48.682;9.030;2022-07-03T12:46:26;32.70;38.80
3954;DHT22;1991;48.682;9.030;2022-07-03T12:48:53;32.80;39.10
3954;DHT22;1991;48.682;9.030;2022-07-03T12:51:59;33.00;38.50
3954;DHT22;1991;48.682;9.030;2022-07-03T12:54:35;33.10;37.40
3954;DHT22;1991;48.682;9.030;2022-07-03T12:57:05;33.00;38.30
3954;DHT22;1991;48.682;9.030;2022-07-03T13:00:07;32.80;38.70
3954;DHT22;1991;48.682;9.030;2022-07-03T13:02:35;32.40;38.10
3954;DHT22;1991;48.682;9.030;2022-07-03T13:05:12;32.30;38.50
3954;DHT22;1991;48.682;9.030;2022-07-03T13:07:43;32.60;40.80
3954;DHT22;1991;48.682;9.030;2022-07-03T13:10:09;32.70;39.00
3954;DHT22;1991;48.682;9.030;2022-07-03T13:12:54;32.20;39.20
3954;DHT22;1991;48.682;9.030;2022-07-03T13:15:24;32.10;40.20
3954;DHT22;1991;48.682;9.030;2022-07-03T13:20:20;32.00;39.10
3954;DHT22;1991;48.682;9.030;2022-07-03T13:22:54;32.20;39.40
3954;DHT22;1991;48.682;9.030;2022-07-03T13:25:20;32.30;38.40
3954;DHT22;1991;48.682;9.030;2022-07-03T13:27:46;32.40;39.70
3954;DHT22;1991;48.682;9.030;2022-07-03T13:30:16;32.40;38.50
3954;DHT22;1991;48.682;9.030;2022-07-03T13:32:43;32.00;39.00
3954;DHT22;1991;48.682;9.030;2022-07-03T13:35:09;32.10;39.10
3954;DHT22;1991;48.682;9.030;2022-07-03T13:37:35;32.10;39.00
3954;DHT22;1991;48.682;9.030;2022-07-03T13:40:02;32.00;38.60
3954;DHT22;1991;48.682;9.030;2022-07-03T13:42:28;32.00;37.60
3954;DHT22;1991;48.682;9.030;2022-07-03T13:44:53;31.80;37.00
3954;DHT22;1991;48.682;9.030;2022-07-03T13:47:19;31.90;37.00
3954;DHT22;1991;48.682;9.030;2022-07-03T13:49:45;32.20;36.70
3954;DHT22;1991;48.682;9.030;2022-07-03T13:52:10;32.60;37.20
3954;DHT22;1991;48.682;9.030;2022-07-03T13:54:36;32.50;39.30
3954;DHT22;1991;48.682;9.030;2022-07-03T13:57:04;32.60;43.20
3954;DHT22;1991;48.682;9.030;2022-07-03T13:59:30;32.80;44.30
3954;DHT22;1991;48.682;9.030;2022-07-03T14:01:57;32.90;42.50
3954;DHT22;1991;48.682;9.030;2022-07-03T14:04:22;32.80;41.50
3954;DHT22;1991;48.682;9.030;2022-07-03T14:06:48;32.60;41.60
3954;DHT22;1991;48.682;9.030;2022-07-03T14:09:13;32.80;42.50
3954;DHT22;1991;48.682;9.030;2022-07-03T14:11:39;32.90;41.90
3954;DHT22;1991;48.682;9.030;2022-07-03T14:14:05;33.00;42.90
3954;DHT22;1991;48.682;9.030;2022-07-03T14:16:31;32.60;43.90
3954;DHT22;1991;48.682;9.030;2022-07-03T14:18:57;32.50;41.80
3954;DHT22;1991;48.682;9.030;2022-07-03T14:21:23;32.50;42.60
3954;DHT22;1991;48.682;9.030;2022-07-03T14:23:48;32.40;42.50
3954;DHT22;1991;48.682;9.030;2022-07-03T14:26:14;32.30;44.50
3954;DHT22;1991;48.682;9.030;2022-07-03T14:28:39;32.50;42.90
3954;DHT22;1991;48.682;9.030;2022-07-03T14:31:24;32.60;43.10
3954;DHT22;1991;48.682;9.030;2022-07-03T14:33:50;32.60;41.70
3954;DHT22;1991;48.682;9.030;2022-07-03T14:36:16;32.60;42.00
3954;DHT22;1991;48.682;9.030;2022-07-03T14:38:42;32.50;43.70
3954;DHT22;1991;48.682;9.030;2022-07-03T14:41:08;32.50;43.70
3954;DHT22;1991;48.682;9.030;2022-07-03T14:43:34;32.50;43.10
3954;DHT22;1991;48.682;9.030;2022-07-03T14:45:59;32.40;42.70
3954;DHT22;1991;48.682;9.030;2022-07-03T14:48:25;32.30;42.50
3954;DHT22;1991;48.682;9.030;2022-07-03T14:50:51;32.10;43.00
3954;DHT22;1991;48.682;9.030;2022-07-03T14:53:21;32.00;44.00
3954;DHT22;1991;48.682;9.030;2022-07-03T14:55:48;31.90;44.70
3954;DHT22;1991;48.682;9.030;2022-07-03T14:58:16;31.80;44.40
3954;DHT22;1991;48.682;9.030;2022-07-03T15:00:47;31.70;44.00
3954;DHT22;1991;48.682;9.030;2022-07-03T15:03:17;31.70;44.20
3954;DHT22;1991;48.682;9.030;2022-07-03T15:05:43;31.60;45.20
3954;DHT22;1991;48.682;9.030;2022-07-03T15:08:33;31.60;43.40
3954;DHT22;1991;48.682;9.030;2022-07-03T15:11:12;31.50;43.90
3954;DHT22;1991;48.682;9.030;2022-07-03T15:14:04;31.40;45.30
3954;DHT22;1991;48.682;9.030;2022-07-03T15:16:34;31.30;44.60
3954;DHT22;1991;48.682;9.030;2022-07-03T15:19:00;31.10;45.70
3954;DHT22;1991;48.682;9.030;2022-07-03T15:21:33;31.10;46.10
3954;DHT22;1991;48.682;9.030;2022-07-03T15:24:06;31.10;46.80
3954;DHT22;1991;48.682;9.030;2022-07-03T15:26:33;31.00;45.90
3954;DHT22;1991;48.682;9.030;2022-07-03T15:29:00;30.80;45.80
3954;DHT22;1991;48.682;9.030;2022-07-03T15:31:27;30.70;45.80
3954;DHT22;1991;48.682;9.030;2022-07-03T15:33:54;30.60;46.30
3954;DHT22;1991;48.682;9.030;2022-07-03T15:36:26;30.60;47.00
3954;DHT22;1991;48.682;9.030;2022-07-03T15:39:04;30.50;46.20
3954;DHT22;1991;48.682;9.030;2022-07-03T15:42:01;30.30;45.20
3954;DHT22;1991;48.682;9.030;2022-07-03T15:47:50;30.20;46.50
3954;DHT22;1991;48.682;9.030;2022-07-03T15:50:34;30.10;46.70
3954;DHT22;1991;48.682;9.030;2022-07-03T15:53:00;30.10;47.10
3954;DHT22;1991;48.682;9.030;2022-07-03T15:55:33;29.90;47.10
3954;DHT22;1991;48.682;9.030;2022-07-03T15:58:04;29.90;48.00
3954;DHT22;1991;48.682;9.030;2022-07-03T16:00:35;29.70;47.70
3954;DHT22;1991;48.682;9.030;2022-07-03T16:03:24;29.70;47.70
3954;DHT22;1991;48.682;9.030;2022-07-03T16:05:54;29.60;47.40
3954;DHT22;1991;48.682;9.030;2022-07-03T16:08:23;29.40;47.80
3954;DHT22;1991;48.682;9.030;2022-07-03T16:10:50;29.30;49.00
3954;DHT22;1991;48.682;9.030;2022-07-03T16:13:19;29.30;47.80
3954;DHT22;1991;48.682;9.030;2022-07-03T16:15:50;29.10;48.40
3954;DHT22;1991;48.682;9.030;2022-07-03T16:18:16;29.10;48.00
3954;DHT22;1991;48.682;9.030;2022-07-03T16:20:42;29.10;48.90
3954;DHT22;1991;48.682;9.030;2022-07-03T16:23:11;28.90;48.70
3954;DHT22;1991;48.682;9.030;2022-07-03T16:25:37;28.80;48.90
3954;DHT22;1991;48.682;9.030;2022-07-03T16:28:09;28.70;49.20
3954;DHT22;1991;48.682;9.030;2022-07-03T16:30:39;28.60;48.30
3954;DHT22;1991;48.682;9.030;2022-07-03T16:33:10;28.60;49.40
3954;DHT22;1991;48.682;9.030;2022-07-03T16:35:45;28.50;50.40
3954;DHT22;1991;48.682;9.030;2022-07-03T16:38:18;28.50;50.00
3954;DHT22;1991;48.682;9.030;2022-07-03T16:40:45;28.40;50.20
3954;DHT22;1991;48.682;9.030;2022-07-03T16:43:14;28.40;49.50
3954;DHT22;1991;48.682;9.030;2022-07-03T16:45:43;28.20;50.20
3954;DHT22;1991;48.682;9.030;2022-07-03T16:48:11;28.10;50.00
3954;DHT22;1991;48.682;9.030;2022-07-03T16:50:48;28.00;50.30
3954;DHT22;1991;48.682;9.030;2022-07-03T16:53:17;27.90;50.30
3954;DHT22;1991;48.682;9.030;2022-07-03T16:55:43;27.90;49.70
3954;DHT22;1991;48.682;9.030;2022-07-03T16:58:09;27.90;49.50
3954;DHT22;1991;48.682;9.030;2022-07-03T17:00:36;27.90;49.80
3954;DHT22;1991;48.682;9.030;2022-07-03T17:03:03;27.80;50.20
3954;DHT22;1991;48.682;9.030;2022-07-03T17:05:29;27.80;50.30
3954;DHT22;1991;48.682;9.030;2022-07-03T17:07:55;27.60;51.30
3954;DHT22;1991;48.682;9.030;2022-07-03T17:10:22;27.50;50.70
3954;DHT22;1991;48.682;9.030;2022-07-03T17:12:51;27.50;51.10
3954;DHT22;1991;48.682;9.030;2022-07-03T17:15:20;27.40;51.30
3954;DHT22;1991;48.682;9.030;2022-07-03T17:17:49;27.40;51.90
3954;DHT22;1991;48.682;9.030;2022-07-03T17:20:22;27.30;51.70
3954;DHT22;1991;48.682;9.030;2022-07-03T17:23:03;27.30;52.00
3954;DHT22;1991;48.682;9.030;2022-07-03T17:25:40;27.20;52.50
3954;DHT22;1991;48.682;9.030;2022-07-03T17:28:06;27.10;52.20
3954;DHT22;1991;48.682;9.030;2022-07-03T17:30:50;27.00;52.00
3954;DHT22;1991;48.682;9.030;2022-07-03T17:33:18;27.00;52.80
3954;DHT22;1991;48.682;9.030;2022-07-03T17:35:45;26.90;52.90
3954;DHT22;1991;48.682;9.030;2022-07-03T17:38:16;26.90;52.20
3954;DHT22;1991;48.682;9.030;2022-07-03T17:40:44;26.80;53.40
3954;DHT22;1991;48.682;9.030;2022-07-03T17:43:11;26.80;53.60
3954;DHT22;1991;48.682;9.030;2022-07-03T17:45:39;26.70;53.30
3954;DHT22;1991;48.682;9.030;2022-07-03T17:48:06;26.70;53.40
3954;DHT22;1991;48.682;9.030;2022-07-03T17:50:33;26.70;53.50